Time;durP1;ratioP1;P1;durP2;ratioP2;P2;SDS_P1;SDS_P2;PMS_P1;PMS_P2;Temp;Humidity;BMP_temperature;BMP_pressure;BME280_temperature;BME280_humidity;BME280_pressure;Samples;Min_cycle;Max_cycle;Signal;HPM_P1;HPM_P2
2022/05/10 00:01:33;;;;;;;3.55;2.75;;;;;;;16.75;66.35;99470.78;5076838;28;20375;-59
2022/05/10 00:04:18;;;;;;;5.53;3.55;;;;;;;14.93;74.44;99479.75;5092720;28;20036;-60
2022/05/10 00:07:04;;;;;;;3.47;2.90;;;;;;;15.41;74.55;99459.44;5092954;28;20032;-60
2022/05/10 00:09:49;;;;;;;5.20;3.50;;;;;;;15.66;72.90;99473.34;5092807;28;20089;-59
2022/05/10 00:12:34;;;;;;;5.45;3.63;;;;;;;15.70;72.05;99475.59;5092645;28;20036;-59
2022/05/10 00:15:19;;;;;;;5.30;3.10;;;;;;;15.48;73.15;99466.75;5091597;28;20036;-60
2022/05/10 00:18:04;;;;;;;7.45;3.20;;;;;;;15.72;73.01;99472.84;5092840;28;20532;-59
2022/05/10 00:20:48;;;;;;;5.18;3.28;;;;;;;16.17;70.75;99476.41;5091501;28;20032;-59
2022/05/10 00:23:33;;;;;;;4.40;2.90;;;;;;;16.33;69.94;99465.44;5092656;28;20044;-60
2022/05/10 00:26:18;;;;;;;7.07;3.92;;;;;;;16.17;69.88;99474.63;5092593;28;20039;-59
2022/05/10 00:29:03;;;;;;;5.20;3.05;;;;;;;16.08;71.03;99476.19;5092374;28;20043;-59
2022/05/10 00:31:48;;;;;;;4.68;3.35;;;;;;;15.74;72.42;99474.41;5092731;28;20052;-59
2022/05/10 00:34:34;;;;;;;6.93;3.85;;;;;;;15.88;71.48;99473.31;5091257;28;20063;-60
2022/05/10 00:37:22;;;;;;;5.15;3.55;;;;;;;15.86;72.41;99466.47;5092184;28;20379;-59
2022/05/10 00:40:07;;;;;;;5.25;3.25;;;;;;;16.11;71.07;99468.00;5092278;28;20039;-59
2022/05/10 00:43:16;;;;;;;7.93;4.55;;;;;;;16.05;70.72;99465.03;5091404;28;20111;-61
2022/05/10 00:46:11;;;;;;;6.32;3.95;;;;;;;15.77;70.70;99466.25;5091621;28;20051;-59
2022/05/10 00:49:10;;;;;;;4.85;3.30;;;;;;;15.78;71.12;99461.81;5074906;28;20386;-60
2022/05/10 00:52:09;;;;;;;4.57;3.33;;;;;;;15.97;70.85;99458.53;5103479;28;20094;-59
2022/05/10 00:55:05;;;;;;;7.07;4.28;;;;;;;15.98;70.91;99459.38;5090568;28;20092;-59
2022/05/10 00:57:57;;;;;;;5.40;4.13;;;;;;;15.82;71.92;99457.09;5090765;28;20036;-59
2022/05/10 01:00:42;;;;;;;6.60;3.58;;;;;;;16.12;71.34;99450.38;5073653;28;20467;-59
2022/05/10 01:03:32;;;;;;;4.97;3.28;;;;;;;16.23;70.60;99446.84;5092885;28;20043;-61
2022/05/10 01:06:33;;;;;;;5.28;3.75;;;;;;;16.30;69.55;99448.03;5075497;28;20068;-59
2022/05/10 01:09:33;;;;;;;4.95;3.60;;;;;;;16.38;69.41;99450.03;5075183;28;20044;-59
2022/05/10 01:12:28;;;;;;;4.55;3.40;;;;;;;16.20;69.98;99440.00;5074426;28;20044;-60
2022/05/10 01:15:19;;;;;;;4.43;3.03;;;;;;;15.97;71.36;99445.31;5076021;28;20040;-59
2022/05/10 01:18:04;;;;;;;4.50;3.47;;;;;;;16.08;70.41;99433.91;5075683;28;20357;-59
2022/05/10 01:20:55;;;;;;;5.07;3.08;;;;;;;16.16;70.90;99435.09;5080422;28;20032;-59
2022/05/10 01:23:58;;;;;;;4.20;2.90;;;;;;;16.19;70.81;99424.28;5097397;28;20040;-60
2022/05/10 01:27:08;;;;;;;3.15;2.65;;;;;;;16.08;70.91;99431.25;5095825;28;20282;-59
2022/05/10 01:30:18;;;;;;;4.15;2.92;;;;;;;15.93;72.07;99432.50;5095538;28;20036;-60
2022/05/10 01:36:12;;;;;;;6.93;3.22;;;;;;;15.54;72.80;99436.38;5095599;28;20044;-59
2022/05/10 01:39:30;;;;;;;4.60;3.20;;;;;;;15.57;73.13;99437.94;5095404;28;20087;-60
2022/05/10 01:42:27;;;;;;;6.55;3.50;;;;;;;15.44;72.78;99436.25;5087646;28;20041;-60
2022/05/10 01:45:33;;;;;;;5.13;3.13;;;;;;;15.09;74.62;99434.56;5075157;28;20032;-59
2022/05/10 01:48:21;;;;;;;6.90;3.78;;;;;;;14.93;75.27;99429.63;5086262;28;20037;-58
2022/05/10 01:51:18;;;;;;;3.90;3.10;;;;;;;15.05;76.05;99430.50;5073900;28;20061;-59
2022/05/10 01:54:03;;;;;;;5.18;3.25;;;;;;;15.50;74.88;99427.84;5074408;28;20063;-59
2022/05/10 01:56:47;;;;;;;4.07;2.80;;;;;;;15.43;74.68;99433.72;5074534;28;20468;-60
2022/05/10 01:59:32;;;;;;;4.80;3.55;;;;;;;15.65;72.88;99435.53;5074261;28;20082;-60
2022/05/10 02:02:19;;;;;;;3.60;2.25;;;;;;;15.89;73.40;99427.47;5074758;28;20050;-60
2022/05/10 02:05:09;;;;;;;3.90;2.60;;;;;;;16.23;71.57;99426.53;5087737;28;20045;-59
2022/05/10 02:08:05;;;;;;;5.25;2.58;;;;;;;16.27;71.11;99421.84;5090236;28;20047;-61
2022/05/10 02:10:52;;;;;;;4.75;2.72;;;;;;;16.10;71.21;99413.50;5094695;28;20113;-59
2022/05/10 02:14:09;;;;;;;3.58;2.60;;;;;;;15.84;71.60;99423.50;5093822;28;20044;-59
2022/05/10 02:16:55;;;;;;;3.80;2.88;;;;;;;15.47;72.96;99414.06;5094803;28;20119;-59
2022/05/10 02:19:45;;;;;;;4.00;2.78;;;;;;;15.09;74.88;99410.81;5094519;28;20036;-58
2022/05/10 02:23:01;;;;;;;6.03;3.00;;;;;;;14.72;76.79;99406.53;5094536;28;20068;-59
2022/05/10 02:25:54;;;;;;;4.63;3.10;;;;;;;14.84;77.87;99410.06;5093627;28;20119;-60
2022/05/10 02:28:56;;;;;;;4.05;2.85;;;;;;;15.27;76.23;99403.28;5093598;28;20075;-60
2022/05/10 02:35:07;;;;;;;3.92;2.85;;;;;;;14.91;76.32;99400.72;5094298;28;20058;-58
2022/05/10 02:37:52;;;;;;;4.55;3.22;;;;;;;14.85;77.81;99402.03;5094179;28;20036;-58
2022/05/10 02:40:41;;;;;;;3.88;3.00;;;;;;;14.95;77.74;99399.53;5085344;28;20048;-61
2022/05/10 02:43:36;;;;;;;5.72;3.05;;;;;;;15.06;76.46;99393.44;5073582;28;20055;-58
2022/05/10 02:46:21;;;;;;;3.78;3.17;;;;;;;15.07;77.27;99389.84;5087004;28;20209;-59
2022/05/10 02:49:06;;;;;;;3.53;2.90;;;;;;;15.11;76.94;99390.44;5073352;28;20399;-59
2022/05/10 02:51:51;;;;;;;4.55;3.30;;;;;;;15.13;76.76;99389.34;5081491;28;20059;-60
2022/05/10 02:54:35;;;;;;;3.55;2.65;;;;;;;15.18;76.72;99383.72;5093703;28;20040;-60
2022/05/10 02:57:21;;;;;;;5.05;3.28;;;;;;;15.08;75.86;99393.31;5078710;28;20044;-60
2022/05/10 03:00:07;;;;;;;5.13;2.70;;;;;;;14.94;77.01;99389.09;5104909;28;20485;-62
2022/05/10 03:02:58;;;;;;;4.30;2.75;;;;;;;15.11;76.40;99391.25;5086958;28;20044;-59
2022/05/10 03:05:42;;;;;;;3.20;2.10;;;;;;;15.32;76.30;99385.28;5080184;28;20047;-59
2022/05/10 03:08:27;;;;;;;3.63;2.45;;;;;;;15.87;74.32;99386.25;5078815;28;20063;-60
2022/05/10 03:11:13;;;;;;;4.50;2.42;;;;;;;16.11;72.85;99388.72;5072853;28;20074;-61
2022/05/10 03:13:59;;;;;;;5.28;2.85;;;;;;;16.28;71.98;99388.31;5086503;28;20032;-60
2022/05/10 03:16:43;;;;;;;4.40;2.88;;;;;;;16.34;71.06;99390.44;5072770;28;20039;-60
2022/05/10 03:19:28;;;;;;;3.83;2.50;;;;;;;16.34;71.11;99375.41;5086355;28;20395;-59
2022/05/10 03:22:13;;;;;;;4.68;2.97;;;;;;;16.39;70.76;99380.31;5081402;28;20098;-59
2022/05/10 03:24:57;;;;;;;4.72;3.00;;;;;;;15.94;71.65;99381.31;5082353;28;20036;-59
2022/05/10 03:27:45;;;;;;;3.63;2.67;;;;;;;15.42;73.70;99384.56;5114194;28;20032;-59
2022/05/10 03:30:30;;;;;;;5.72;2.97;;;;;;;15.38;75.47;99382.16;5095632;28;20034;-59
2022/05/10 03:33:16;;;;;;;6.72;2.63;;;;;;;15.52;74.92;99388.16;5090589;28;20040;-60
2022/05/10 03:36:00;;;;;;;4.25;2.80;;;;;;;15.50;73.56;99388.25;5091551;28;20062;-59
2022/05/10 03:38:45;;;;;;;4.47;3.40;;;;;;;15.12;75.59;99385.03;5089874;28;20036;-60
2022/05/10 03:41:29;;;;;;;3.10;2.35;;;;;;;14.96;76.82;99387.19;5092038;28;20036;-59
2022/05/10 03:44:14;;;;;;;4.88;3.05;;;;;;;15.18;77.39;99388.16;5091092;28;20040;-60
2022/05/10 03:46:59;;;;;;;3.70;2.70;;;;;;;15.28;75.83;99391.75;5090177;28;20051;-63
2022/05/10 03:49:45;;;;;;;5.95;3.00;;;;;;;15.14;75.81;99385.78;5091123;28;20036;-60
2022/05/10 03:52:31;;;;;;;5.15;3.00;;;;;;;15.15;76.51;99395.34;5093870;28;20044;-59
2022/05/10 03:55:22;;;;;;;5.97;3.25;;;;;;;15.42;75.90;99389.81;5092690;28;20035;-59
2022/05/10 03:58:07;;;;;;;4.70;2.92;;;;;;;15.45;75.11;99400.16;5103582;28;20475;-59
2022/05/10 04:00:52;;;;;;;6.15;3.85;;;;;;;15.34;74.95;99393.91;5109064;28;20065;-60
2022/05/10 04:03:37;;;;;;;3.95;2.80;;;;;;;15.19;76.62;99392.47;5091891;28;20123;-59
2022/05/10 04:06:22;;;;;;;4.22;2.83;;;;;;;15.20;76.46;99402.91;5094195;28;20051;-59
2022/05/10 04:09:06;;;;;;;4.85;2.65;;;;;;;15.34;76.50;99406.28;5094432;28;20463;-59
2022/05/10 04:11:51;;;;;;;4.88;2.92;;;;;;;15.37;75.20;99404.22;5094791;28;20115;-59
2022/05/10 04:14:36;;;;;;;4.90;3.22;;;;;;;15.29;75.80;99396.09;5094211;28;20085;-59
2022/05/10 04:17:22;;;;;;;6.25;3.28;;;;;;;15.42;75.87;99401.25;5094150;28;20471;-59
2022/05/10 04:20:08;;;;;;;5.63;2.97;;;;;;;15.46;75.78;99397.38;5095255;28;20040;-61
2022/05/10 04:22:53;;;;;;;9.40;3.38;;;;;;;15.36;76.20;99402.53;5093306;28;20048;-60
2022/05/10 04:25:38;;;;;;;6.32;3.35;;;;;;;15.33;76.08;99402.78;5093288;28;20047;-59
2022/05/10 04:28:22;;;;;;;7.90;3.35;;;;;;;15.50;75.43;99403.25;5094197;28;20040;-59
2022/05/10 04:31:07;;;;;;;4.95;3.40;;;;;;;15.69;74.02;99410.56;5091573;28;20066;-59
2022/05/10 04:33:52;;;;;;;7.72;4.60;;;;;;;15.55;74.41;99409.03;5091423;28;20039;-59
2022/05/10 04:36:36;;;;;;;9.18;3.30;;;;;;;15.45;76.56;99410.69;5092481;28;20467;-61
2022/05/10 04:39:21;;;;;;;8.32;3.60;;;;;;;15.44;76.21;99412.50;5096254;28;20039;-59
2022/05/10 04:42:06;;;;;;;7.88;4.00;;;;;;;15.87;74.87;99410.03;5096340;28;20174;-59
2022/05/10 04:44:51;;;;;;;6.40;3.58;;;;;;;15.83;74.33;99412.06;5091885;28;20029;-59
2022/05/10 04:47:36;;;;;;;6.05;4.30;;;;;;;16.05;73.33;99417.47;5088011;28;20032;-66
2022/05/10 04:50:21;;;;;;;7.80;4.00;;;;;;;16.00;73.71;99416.03;5096110;28;20044;-61
2022/05/10 04:53:05;;;;;;;7.30;3.67;;;;;;;15.93;73.21;99420.09;5096111;28;20507;-62
2022/05/10 04:55:50;;;;;;;6.88;4.03;;;;;;;15.85;72.35;99426.00;5095754;28;20043;-60
2022/05/10 04:58:35;;;;;;;6.95;3.50;;;;;;;15.82;73.54;99428.91;5096031;28;20047;-58
2022/05/10 05:01:22;;;;;;;7.45;3.60;;;;;;;15.79;73.90;99431.78;5095877;28;20043;-59
2022/05/10 05:04:06;;;;;;;6.00;4.25;;;;;;;15.70;74.25;99427.25;5095161;28;20040;-59
2022/05/10 05:06:52;;;;;;;5.53;3.75;;;;;;;15.56;76.55;99434.47;5095958;28;20063;-58
2022/05/10 05:09:37;;;;;;;7.30;4.22;;;;;;;15.43;75.71;99433.72;5095846;28;20064;-60
2022/05/10 05:12:22;;;;;;;6.40;3.92;;;;;;;15.18;77.01;99433.03;5095873;28;20089;-59
2022/05/10 05:15:10;;;;;;;7.95;3.67;;;;;;;15.25;76.88;99443.00;5092981;28;20036;-59
2022/05/10 05:17:55;;;;;;;4.68;3.63;;;;;;;15.32;78.36;99439.88;5095675;28;20036;-59
2022/05/10 05:20:42;;;;;;;6.80;4.07;;;;;;;15.85;77.51;99444.50;5095581;28;20036;-60
2022/05/10 05:23:27;;;;;;;10.50;4.63;;;;;;;15.81;75.41;99440.44;5093108;28;20075;-59
2022/05/10 05:26:12;;;;;;;7.57;4.63;;;;;;;15.74;76.38;99450.66;5095729;28;20160;-59
2022/05/10 05:28:57;;;;;;;7.68;5.38;;;;;;;15.46;76.72;99446.69;5095338;28;20032;-57
2022/05/10 05:31:41;;;;;;;8.40;5.38;;;;;;;15.30;77.83;99452.34;5095430;28;20118;-58
2022/05/10 05:34:26;;;;;;;9.70;5.90;;;;;;;15.50;78.61;99453.44;5106903;28;20048;-59
2022/05/10 05:40:16;;;;;;;8.18;4.38;;;;;;;15.98;82.26;99457.59;5081292;28;20527;-56
2022/05/10 05:43:00;;;;;;;8.98;5.97;;;;;;;16.22;74.62;99458.38;5106949;28;20105;-59
2022/05/10 05:45:46;;;;;;;7.68;5.68;;;;;;;16.23;74.68;99460.06;5093658;28;20505;-59
2022/05/10 05:48:30;;;;;;;11.10;7.00;;;;;;;15.92;75.15;99458.06;5093845;28;20040;-58
2022/05/10 05:51:15;;;;;;;12.75;7.07;;;;;;;15.95;75.65;99464.88;5093819;28;20109;-60
2022/05/10 05:54:00;;;;;;;8.38;5.70;;;;;;;16.43;75.12;99457.59;5084603;28;20036;-59
2022/05/10 05:56:44;;;;;;;9.00;5.32;;;;;;;16.70;74.23;99466.81;5093556;28;20028;-59
2022/05/10 05:59:30;;;;;;;9.65;6.53;;;;;;;17.19;70.67;99464.53;5095359;28;20028;-57
2022/05/10 06:02:18;;;;;;;7.97;4.70;;;;;;;17.50;72.48;99469.00;5091012;28;20047;-60
2022/05/10 06:05:03;;;;;;;8.30;5.03;;;;;;;18.14;71.68;99467.94;5094202;28;20138;-54
2022/05/10 06:07:48;;;;;;;13.05;7.35;;;;;;;18.59;70.46;99471.88;5093535;28;20040;-54
2022/05/10 06:10:33;;;;;;;15.90;7.78;;;;;;;17.83;68.97;99479.44;5093869;28;20040;-61
2022/05/10 06:13:21;;;;;;;15.98;8.35;;;;;;;17.95;68.64;99477.50;5092889;28;20039;-59
2022/05/10 06:16:07;;;;;;;25.92;11.77;;;;;;;18.18;69.19;99474.66;5089412;28;20036;-55
2022/05/10 06:18:52;;;;;;;10.90;6.82;;;;;;;17.45;68.41;99476.50;5094072;28;20032;-58
2022/05/10 06:21:37;;;;;;;8.73;6.35;;;;;;;16.27;71.66;99477.34;5092583;28;20443;-57
2022/05/10 06:24:23;;;;;;;10.80;7.43;;;;;;;15.69;74.61;99478.38;5093006;28;20295;-58
2022/05/10 06:27:14;;;;;;;13.85;7.18;;;;;;;15.73;75.66;99482.47;5074077;28;20048;-59
2022/05/10 06:29:59;;;;;;;9.57;6.80;;;;;;;16.29;73.86;99480.69;5091008;28;20036;-57
2022/05/10 06:32:44;;;;;;;10.25;5.93;;;;;;;17.02;71.59;99478.34;5093351;28;20032;-56
2022/05/10 06:35:29;;;;;;;10.25;6.78;;;;;;;17.66;68.04;99480.91;5093103;28;20116;-58
2022/05/10 06:38:16;;;;;;;9.20;6.05;;;;;;;18.28;67.60;99483.44;5093975;28;20040;-58
2022/05/10 06:41:04;;;;;;;12.32;7.35;;;;;;;19.15;63.69;99482.72;5093644;28;20032;-60
2022/05/10 06:43:49;;;;;;;10.00;6.53;;;;;;;19.12;61.94;99474.22;5088925;28;20054;-57
2022/05/10 06:46:42;;;;;;;13.73;7.10;;;;;;;17.46;66.44;99486.13;5091933;28;20492;-57
2022/05/10 06:49:27;;;;;;;8.63;6.78;;;;;;;17.32;67.66;99474.91;5092383;28;20088;-57
2022/05/10 06:52:17;;;;;;;8.05;6.22;;;;;;;18.08;65.32;99472.78;5092547;28;20052;-58
2022/05/10 06:55:03;;;;;;;10.43;6.78;;;;;;;18.30;63.51;99476.19;5106576;28;20047;-58
2022/05/10 06:57:48;;;;;;;10.65;6.32;;;;;;;18.28;62.98;99483.44;5092657;28;20044;-61
2022/05/10 07:00:35;;;;;;;9.25;6.20;;;;;;;17.65;62.84;99480.06;5090283;28;20111;-57
2022/05/10 07:03:31;;;;;;;9.18;6.47;;;;;;;17.15;65.41;99476.38;5092083;28;20032;-58
2022/05/10 07:06:24;;;;;;;8.35;6.05;;;;;;;17.67;64.37;99482.59;5083585;28;20093;-65
2022/05/10 07:09:09;;;;;;;7.88;5.78;;;;;;;18.38;61.95;99475.50;5087451;28;20040;-60
2022/05/10 07:11:54;;;;;;;9.73;6.35;;;;;;;19.13;60.20;99482.03;5082153;28;20082;-61
2022/05/10 07:14:38;;;;;;;7.80;6.15;;;;;;;19.03;60.22;99475.88;5067711;28;20040;-64
2022/05/10 07:17:23;;;;;;;11.73;6.78;;;;;;;18.78;60.77;99481.66;5078220;28;20044;-59
2022/05/10 07:20:10;;;;;;;9.73;6.68;;;;;;;18.43;62.05;99478.59;5095962;28;20036;-58
2022/05/10 07:22:55;;;;;;;10.55;6.45;;;;;;;17.89;64.14;99478.88;5092674;28;20050;-59
2022/05/10 07:25:40;;;;;;;9.70;6.75;;;;;;;18.49;61.64;99479.00;5088082;28;20093;-58
2022/05/10 07:28:29;;;;;;;8.15;5.80;;;;;;;18.74;61.40;99469.63;5068808;28;20036;-54
2022/05/10 07:31:15;;;;;;;11.65;6.28;;;;;;;18.54;61.41;99464.34;5080739;28;20044;-59
2022/05/10 07:34:00;;;;;;;12.88;6.30;;;;;;;18.62;62.25;99468.13;5077117;28;20518;-61
2022/05/10 07:36:45;;;;;;;8.07;5.78;;;;;;;19.53;59.12;99471.28;5092383;28;20036;-59
2022/05/10 07:39:29;;;;;;;9.35;5.80;;;;;;;19.42;58.75;99464.34;5064429;28;20048;-59
2022/05/10 07:42:14;;;;;;;8.52;5.85;;;;;;;19.47;60.07;99462.06;5077231;28;20039;-58
2022/05/10 07:44:59;;;;;;;7.63;5.30;;;;;;;19.38;59.31;99469.09;5087826;28;20040;-61
2022/05/10 07:47:46;;;;;;;9.50;6.03;;;;;;;19.87;57.52;99464.53;5074884;28;20387;-59
2022/05/10 07:50:31;;;;;;;7.10;5.50;;;;;;;20.22;56.47;99462.94;5090767;28;20044;-59
2022/05/10 07:53:19;;;;;;;10.23;5.95;;;;;;;20.21;55.72;99477.22;5091230;28;20044;-60
2022/05/10 07:56:04;;;;;;;7.95;5.78;;;;;;;20.67;54.66;99469.16;5088514;28;20062;-61
2022/05/10 07:58:48;;;;;;;11.45;5.80;;;;;;;20.48;55.40;99472.84;5089242;28;20111;-58
2022/05/10 08:01:33;;;;;;;8.60;5.07;;;;;;;20.70;55.00;99470.66;5091065;28;20123;-59
2022/05/10 08:04:18;;;;;;;8.00;5.22;;;;;;;21.33;53.24;99475.13;5092375;28;20063;-59
2022/05/10 08:07:03;;;;;;;7.80;6.20;;;;;;;21.15;53.61;99474.16;5076193;28;20032;-59
2022/05/10 08:09:48;;;;;;;12.77;5.30;;;;;;;22.15;52.03;99479.94;5092009;28;20036;-62
2022/05/10 08:12:33;;;;;;;17.02;8.85;;;;;;;21.96;57.80;99473.06;5090718;28;20454;-61
2022/05/10 08:15:20;;;;;;;8.95;5.72;;;;;;;22.58;50.64;99475.47;5092474;28;20039;-61
2022/05/10 08:18:06;;;;;;;25.40;9.10;;;;;;;21.70;58.81;99467.78;5077243;28;20040;-62
2022/05/10 08:20:52;;;;;;;9.20;4.85;;;;;;;23.22;49.70;99466.78;5089958;28;20060;-59
2022/05/10 08:23:38;;;;;;;6.88;4.55;;;;;;;22.69;49.94;99474.34;5077835;28;20036;-61
2022/05/10 08:26:24;;;;;;;8.48;5.53;;;;;;;23.76;48.29;99467.09;5089867;28;20467;-64
2022/05/10 08:29:08;;;;;;;9.45;6.03;;;;;;;24.05;48.76;99459.41;5092157;28;20043;-59
2022/05/10 08:31:53;;;;;;;18.98;7.25;;;;;;;24.56;47.58;99466.13;5091786;28;20491;-60
2022/05/10 08:34:38;;;;;;;11.27;5.25;;;;;;;25.40;47.29;99460.78;5091665;28;20082;-58
2022/05/10 08:37:23;;;;;;;7.72;4.82;;;;;;;24.61;45.70;99455.69;5091698;28;20044;-61
2022/05/10 08:40:25;;;;;;;19.08;8.23;;;;;;;24.56;52.69;99456.22;5091060;28;20040;-60
2022/05/10 08:43:20;;;;;;;6.55;4.30;;;;;;;24.56;45.07;99464.25;5091732;28;20043;-63
2022/05/10 08:46:09;;;;;;;8.05;4.68;;;;;;;24.14;45.36;99454.84;5089853;28;20047;-63
2022/05/10 08:49:01;;;;;;;9.40;5.03;;;;;;;23.25;46.91;99457.56;5090576;28;20064;-59
2022/05/10 08:51:52;;;;;;;5.72;3.78;;;;;;;23.65;46.93;99454.13;5104737;28;20048;-60
2022/05/10 08:54:38;;;;;;;6.78;4.78;;;;;;;23.75;46.10;99452.88;5090723;28;20052;-60
2022/05/10 08:57:41;;;;;;;6.70;4.35;;;;;;;24.47;44.96;99443.91;5089442;28;20042;-62
2022/05/10 09:00:27;;;;;;;6.38;3.97;;;;;;;24.49;44.47;99455.28;5088785;28;20427;-50
2022/05/10 09:03:57;;;;;;;7.00;4.40;;;;;;;24.13;44.53;99443.31;5089111;28;20108;-62
2022/05/10 09:06:50;;;;;;;5.32;3.92;;;;;;;24.04;44.50;99447.84;5046299;28;20048;-64
2022/05/10 09:10:00;;;;;;;7.65;3.22;;;;;;;24.87;43.56;99443.75;5092154;28;20098;-63
2022/05/10 09:12:52;;;;;;;7.65;4.38;;;;;;;23.47;45.79;99439.16;5091916;28;20036;-63
2022/05/10 09:15:44;;;;;;;5.95;4.05;;;;;;;24.59;43.17;99434.47;5091690;28;20052;-62
2022/05/10 09:18:46;;;;;;;4.97;3.65;;;;;;;25.13;42.76;99433.63;5088728;28;20048;-64
2022/05/10 09:21:43;;;;;;;6.68;4.00;;;;;;;25.19;41.99;99427.50;5090208;28;20036;-63
2022/05/10 09:24:47;;;;;;;5.05;3.85;;;;;;;24.91;42.06;99431.66;5106810;27;20106;-64
2022/05/10 09:27:35;;;;;;;5.38;3.90;;;;;;;25.62;40.25;99431.34;5095694;28;20131;-55
2022/05/10 09:30:33;;;;;;;5.15;3.28;;;;;;;26.97;40.25;99427.25;5091685;28;20382;-58
2022/05/10 09:36:31;;;;;;;5.95;3.10;;;;;;;26.66;37.74;99429.31;5094807;28;20036;-59
2022/05/10 09:39:28;;;;;;;3.88;3.22;;;;;;;25.59;38.35;99422.66;5093255;28;20084;-62
2022/05/10 09:42:31;;;;;;;5.03;3.00;;;;;;;24.89;38.09;99422.13;5090292;28;20028;-63
2022/05/10 09:45:20;;;;;;;3.78;2.65;;;;;;;25.89;34.47;99418.25;5093699;28;20495;-64
2022/05/10 09:48:09;;;;;;;3.55;2.35;;;;;;;27.74;33.96;99404.91;5094980;28;20262;-62
2022/05/10 09:50:53;;;;;;;5.57;2.50;;;;;;;27.41;33.08;99416.34;5090670;28;20032;-49
2022/05/10 09:53:40;;;;;;;4.25;2.60;;;;;;;27.77;33.48;99415.25;5078792;28;20044;-48
2022/05/10 09:56:30;;;;;;;4.38;2.90;;;;;;;28.19;32.60;99413.47;5093423;28;20044;-62
2022/05/10 09:59:18;;;;;;;5.75;2.80;;;;;;;28.43;32.22;99411.22;5090123;28;20801;-61
2022/05/10 10:02:03;;;;;;;5.00;2.63;;;;;;;28.48;30.59;99406.06;5089951;28;20104;-60
2022/05/10 10:04:48;;;;;;;5.35;2.60;;;;;;;25.92;34.49;99409.81;5090936;28;20056;-62
2022/05/10 10:07:33;;;;;;;3.85;2.28;;;;;;;26.03;36.17;99405.81;5088940;28;20082;-60
2022/05/10 10:10:22;;;;;;;5.78;1.83;;;;;;;28.22;30.14;99388.81;5082303;28;20387;-65
2022/05/10 10:13:29;;;;;;;2.83;2.00;;;;;;;27.13;29.91;99382.28;5093554;28;20042;-60
2022/05/10 10:16:24;;;;;;;2.97;1.63;;;;;;;27.10;30.41;99393.44;5089335;28;20032;-58
2022/05/10 10:19:25;;;;;;;5.43;2.10;;;;;;;26.41;29.52;99392.16;5078549;28;20478;-61
2022/05/10 10:22:09;;;;;;;;;;;;;;;27.09;29.94;99378.34;5105835;28;20055;-61
2022/05/10 10:25:13;;;;;;;4.22;2.10;;;;;;;27.75;29.50;99386.88;5093228;28;19916;-62
2022/05/10 10:28:27;;;;;;;2.83;1.63;;;;;;;25.13;31.21;99380.03;5064176;28;20036;-61
2022/05/10 10:31:20;;;;;;;3.63;1.70;;;;;;;24.38;32.72;99373.56;5078486;28;20040;-63
2022/05/10 10:34:12;;;;;;;3.20;1.67;;;;;;;24.42;33.04;99365.97;5093196;28;20036;-65
2022/05/10 10:37:06;;;;;;;2.88;1.40;;;;;;;23.87;34.64;99372.25;5089605;28;20450;-61
2022/05/10 10:40:06;;;;;;;3.55;1.52;;;;;;;23.96;34.08;99373.84;5093582;28;20038;-61
2022/05/10 10:43:02;;;;;;;6.35;1.67;;;;;;;25.86;30.97;99368.50;5093261;28;20114;-62
2022/05/10 10:45:51;;;;;;;4.22;2.20;;;;;;;27.12;29.45;99362.66;5091402;28;20044;-61
2022/05/10 10:48:48;;;;;;;4.22;1.55;;;;;;;27.59;29.22;99361.16;5093452;28;20104;-58
2022/05/10 10:51:34;;;;;;;5.07;1.73;;;;;;;27.48;28.26;99357.19;5086922;28;20048;-59
2022/05/10 10:54:23;;;;;;;4.75;2.20;;;;;;;26.31;29.20;99356.69;5082310;28;20039;-61
2022/05/10 10:57:16;;;;;;;2.33;1.70;;;;;;;25.66;29.53;99354.88;5086840;28;20064;-63
2022/05/10 11:00:17;;;;;;;2.90;1.40;;;;;;;25.07;30.81;99347.59;5091336;28;20063;-61
2022/05/10 11:03:20;;;;;;;2.75;1.67;;;;;;;26.27;30.07;99345.53;5088886;28;20468;-58
2022/05/10 11:06:14;;;;;;;3.03;1.45;;;;;;;27.16;29.36;99353.16;5103604;28;20072;-60
2022/05/10 11:09:08;;;;;;;4.57;1.70;;;;;;;28.14;27.86;99344.06;5085236;28;20378;-59
2022/05/10 11:12:12;;;;;;;1.60;1.50;;;;;;;28.32;27.27;99346.16;5085061;28;20192;-61
2022/05/10 11:15:03;;;;;;;3.25;1.60;;;;;;;27.93;26.89;99337.84;5091932;28;20510;-60
2022/05/10 11:17:50;;;;;;;1.85;1.40;;;;;;;28.34;28.16;99337.88;5082778;28;20500;-58
2022/05/10 11:21:00;;;;;;;2.78;1.55;;;;;;;29.43;25.29;99343.81;5076760;28;20085;-60
2022/05/10 11:24:01;;;;;;;2.78;1.55;;;;;;;29.01;24.90;99337.75;5072567;28;20520;-60
2022/05/10 11:26:56;;;;;;;;;;;;;;;28.94;25.69;99338.81;5091302;28;20093;-58
2022/05/10 11:29:46;;;;;;;2.78;1.58;;;;;;;28.97;25.47;99333.00;5094482;28;19961;-59
2022/05/10 11:32:40;;;;;;;3.30;1.65;;;;;;;27.85;27.64;99330.81;5077167;28;20375;-49
2022/05/10 11:35:46;;;;;;;3.95;1.50;;;;;;;29.23;25.16;99326.66;5079246;28;20067;-61
2022/05/10 11:38:46;;;;;;;3.75;1.63;;;;;;;30.02;24.67;99319.34;5086789;28;20036;-60
2022/05/10 11:41:39;;;;;;;4.07;1.50;;;;;;;28.27;25.62;99319.00;5092494;28;20050;-61
2022/05/10 11:44:30;;;;;;;3.67;1.80;;;;;;;28.22;26.16;99313.44;5090947;28;20281;-59
2022/05/10 11:47:30;;;;;;;;;;;;;;;28.49;25.32;99311.56;5090804;28;20048;-59
2022/05/10 11:50:27;;;;;;;2.80;1.40;;;;;;;29.01;25.94;99304.56;5091974;28;19920;-60
2022/05/10 11:53:43;;;;;;;3.45;1.60;;;;;;;29.29;24.87;99297.19;5089485;28;20068;-58
2022/05/10 11:56:37;;;;;;;8.73;1.90;;;;;;;26.83;27.78;99304.59;5077770;28;20040;-47
2022/05/10 11:59:27;;;;;;;2.30;1.40;;;;;;;27.46;27.74;99300.09;5073498;28;20551;-47
2022/05/10 12:02:28;;;;;;;4.88;1.30;;;;;;;27.92;26.55;99293.94;5072313;28;20040;-46
2022/05/10 12:05:21;;;;;;;4.35;1.70;;;;;;;28.97;26.21;99292.59;5092677;28;20123;-59
2022/05/10 12:08:15;;;;;;;2.72;1.23;;;;;;;29.10;26.30;99287.09;5091704;28;20075;-58
2022/05/10 12:11:28;;;;;;;3.95;1.70;;;;;;;28.16;26.08;99282.78;5090495;28;20077;-57
2022/05/10 12:21:21;;;;;;;5.35;1.77;;;;;;;28.49;26.60;99262.22;5090575;28;20036;-57
2022/05/10 12:24:20;;;;;;;2.40;1.67;;;;;;;28.62;27.05;99264.06;5092156;28;20040;-57
2022/05/10 12:27:11;;;;;;;4.03;1.60;;;;;;;28.33;27.16;99256.28;5092169;28;20036;-58
2022/05/10 12:29:56;;;;;;;;;;;;;;;28.81;27.24;99253.44;5091571;28;20096;-59
2022/05/10 12:32:43;;;;;;;6.53;2.10;;;;;;;29.36;26.21;99254.81;5092181;28;20279;-57
2022/05/10 12:35:32;;;;;;;4.43;1.80;;;;;;;28.65;26.16;99251.00;5091262;28;20040;-58
2022/05/10 12:38:52;;;;;;;4.15;1.50;;;;;;;27.04;27.95;99256.13;5091822;28;20046;-59
2022/05/10 12:41:55;;;;;;;4.23;1.93;;;;;;;27.37;27.37;99246.47;4975983;28;20050;-60
2022/05/10 12:44:55;;;;;;;2.80;1.60;;;;;;;26.27;28.73;99240.84;5091702;28;20032;-59
2022/05/10 12:47:46;;;;;;;2.22;1.25;;;;;;;28.07;27.02;99240.97;5092441;28;20424;-58
2022/05/10 12:51:15;;;;;;;2.63;1.40;;;;;;;27.27;26.44;99236.13;5071180;28;20356;-57
2022/05/10 12:54:24;;;;;;;2.47;1.30;;;;;;;28.32;24.90;99224.13;5071040;28;20041;-59
2022/05/10 12:57:19;;;;;;;1.70;1.20;;;;;;;28.83;25.29;99224.38;5070789;28;20032;-59
2022/05/10 13:00:12;;;;;;;4.70;1.58;;;;;;;26.89;27.88;99225.88;5074178;28;20037;-57
2022/05/10 13:03:13;;;;;;;2.20;1.42;;;;;;;26.48;28.39;99217.66;5075258;28;20087;-57
2022/05/10 13:06:23;;;;;;;5.78;1.42;;;;;;;27.24;27.20;99217.72;5074463;28;20052;-60
2022/05/10 13:09:20;;;;;;;3.78;1.90;;;;;;;27.17;28.37;99214.19;5060031;28;20040;-58
2022/05/10 13:12:21;;;;;;;3.83;1.40;;;;;;;26.04;28.87;99211.56;5075121;28;20103;-57
2022/05/10 13:15:13;;;;;;;3.08;1.23;;;;;;;25.85;29.44;99199.69;5082935;28;20043;-57
2022/05/10 13:17:59;;;;;;;4.03;1.52;;;;;;;25.09;30.75;99205.38;5094395;28;20048;-57
2022/05/10 13:20:55;;;;;;;3.60;1.48;;;;;;;26.27;29.33;99191.69;5095296;28;20040;-58
2022/05/10 13:23:40;;;;;;;2.65;1.40;;;;;;;26.75;28.33;99187.41;5094109;28;20049;-60
2022/05/10 13:26:25;;;;;;;2.03;1.33;;;;;;;27.56;27.50;99192.94;5095130;28;20425;-58
2022/05/10 13:29:10;;;;;;;3.78;1.67;;;;;;;27.47;27.58;99186.91;5095117;28;20040;-58
2022/05/10 13:31:55;;;;;;;4.97;1.50;;;;;;;25.39;29.91;99183.00;5094967;28;20044;-58
2022/05/10 13:34:50;;;;;;;2.30;1.60;;;;;;;25.69;29.53;99183.69;5093896;28;20051;-59
2022/05/10 13:37:38;;;;;;;2.75;1.50;;;;;;;26.30;28.47;99175.19;5094129;28;20036;-58
2022/05/10 13:40:28;;;;;;;2.97;1.25;;;;;;;26.77;28.19;99175.41;5094590;28;20040;-57
2022/05/10 13:43:49;;;;;;;2.92;1.20;;;;;;;25.83;29.17;99170.38;5095104;28;20105;-59